Time;durP1;ratioP1;P1;durP2;ratioP2;P2;SDS_P1;SDS_P2;PMS_P1;PMS_P2;Temp;Humidity;BMP_temperature;BMP_pressure;BME280_temperature;BME280_humidity;BME280_pressure;Samples;Min_cycle;Max_cycle;Signal;HPM_P1;HPM_P2
2021/05/06 00:02:00;;;;;;;2.87;1.87;;;;;;;;;;5054697;28;20628;-79
2021/05/06 00:06:12;;;;;;;3.27;1.50;;;;;;;;;;5054791;28;20259;-79
2021/05/06 00:07:54;;;;;;;3.00;1.97;;;;;;;;;;5053541;28;20279;-80
2021/05/06 00:32:18;;;;;;;2.67;2.10;;;;;;;;;;5053742;28;20606;-80
2021/05/06 00:34:44;;;;;;;2.17;1.80;;;;;;;;;;5054316;28;20178;-80
2021/05/06 00:37:14;;;;;;;2.80;2.13;;;;;;;;;;5053733;28;20601;-80
2021/05/06 00:39:45;;;;;;;3.80;2.50;;;;;;;;;;5054152;28;20171;-80
2021/05/06 01:03:29;;;;;;;4.20;3.30;;;;;;;;;;5053690;28;20191;-79
2021/05/06 01:06:08;;;;;;;7.63;4.00;;;;;;;;;;5053009;28;20163;-79
2021/05/06 01:09:10;;;;;;;12.83;4.50;;;6.70;99.90;;;;;;5052259;28;20231;-80
2021/05/06 01:14:08;;;;;;;6.77;4.80;;;6.40;99.90;;;;;;5054877;28;20202;-79
2021/05/06 01:16:34;;;;;;;8.33;4.97;;;;;;;;;;5054491;28;20214;-81
2021/05/06 01:19:00;;;;;;;8.27;5.20;;;;;;;;;;5054194;28;20350;-81
2021/05/06 01:21:26;;;;;;;9.30;5.50;;;;;;;;;;5053519;28;21168;-79
2021/05/06 01:23:53;;;;;;;12.20;5.83;;;6.50;99.90;;;;;;5053474;28;20212;-79
2021/05/06 01:29:19;;;;;;;10.93;7.27;;;;;;;;;;5052207;28;20547;-79
2021/05/06 01:31:52;;;;;;;8.90;6.07;;;;;;;;;;5053361;28;20210;-80
2021/05/06 01:34:23;;;;;;;13.13;6.43;;;;;;;;;;5053293;28;20163;-81
2021/05/06 01:36:57;;;;;;;11.10;7.23;;;;;;;;;;5053572;28;20171;-80
2021/05/06 01:42:22;;;;;;;8.50;6.10;;;;;;;;;;5053629;28;20226;-81
2021/05/06 01:50:37;;;;;;;12.43;6.20;;;6.30;99.90;;;;;;5053237;28;20167;-81
2021/05/06 02:01:10;;;;;;;10.67;5.70;;;;;;;;;;5053172;28;20529;-80
2021/05/06 02:03:36;;;;;;;11.20;5.90;;;;;;;;;;5052084;28;20194;-80
2021/05/06 02:06:03;;;;;;;10.33;5.53;;;;;;;;;;5052972;28;20184;-80
2021/05/06 02:08:30;;;;;;;9.47;5.37;;;;;;;;;;5052441;28;20231;-80
2021/05/06 02:10:58;;;;;;;8.23;5.33;;;;;;;;;;5053084;28;20216;-80
2021/05/06 02:13:24;;;;;;;11.90;4.67;;;;;;;;;;5052835;28;20195;-80
2021/05/06 02:16:00;;;;;;;7.93;5.17;;;;;;;;;;5053714;28;20180;-80
2021/05/06 02:18:26;;;;;;;7.97;5.17;;;;;;;;;;5055506;28;20183;-80
2021/05/06 02:20:53;;;;;;;8.63;4.90;;;;;;;;;;5056548;28;20175;-80
2021/05/06 02:23:19;;;;;;;8.87;5.50;;;;;;;;;;5056588;28;20184;-80
2021/05/06 02:25:46;;;;;;;7.00;4.43;;;5.70;99.90;;;;;;5056772;28;20185;-80
2021/05/06 02:28:12;;;;;;;7.50;5.23;;;5.70;99.90;;;;;;5056809;28;20182;-80
2021/05/06 02:30:38;;;;;;;9.13;5.10;;;;;;;;;;5055323;28;20186;-80
2021/05/06 02:33:07;;;;;;;8.97;5.00;;;;;;;;;;5056611;28;20185;-80
2021/05/06 02:35:34;;;;;;;4.13;3.47;;;5.60;99.90;;;;;;5056492;28;20194;-80
2021/05/06 02:38:00;;;;;;;7.80;5.07;;;;;;;;;;5056679;28;20189;-80
2021/05/06 02:40:26;;;;;;;6.70;5.03;;;;;;;;;;5056426;28;20236;-81
2021/05/06 02:42:52;;;;;;;8.90;5.13;;;;;;;;;;5056562;28;20191;-81
2021/05/06 02:45:18;;;;;;;10.00;5.77;;;;;;;;;;5054787;28;20207;-81
2021/05/06 02:47:44;;;;;;;8.10;4.80;;;;;;;;;;5055151;28;20249;-80
2021/05/06 02:50:14;;;;;;;6.57;4.70;;;5.10;99.90;;;;;;5038501;28;20186;-81
2021/05/06 02:53:02;;;;;;;8.77;3.30;;;;;;;;;;5056107;28;20682;-80
2021/05/06 03:03:18;;;;;;;8.53;4.40;;;;;;;;;;5055760;28;20594;-87
2021/05/06 03:05:48;;;;;;;10.53;4.53;;;;;;;;;;5056039;28;20194;-78
2021/05/06 03:08:19;;;;;;;6.13;4.57;;;;;;;;;;5055992;28;20234;-80
2021/05/06 03:23:55;;;;;;;7.53;4.00;;;;;;;;;;5055546;28;20194;-79
2021/05/06 03:26:21;;;;;;;5.07;3.80;;;;;;;;;;5054076;28;20202;-79
2021/05/06 03:29:11;;;;;;;6.30;4.10;;;;;;;;;;5053292;28;20538;-79
2021/05/06 03:42:36;;;;;;;6.50;3.60;;;;;;;;;;5055191;28;20189;-80
2021/05/06 04:17:15;;;;;;;4.40;3.13;;;;;;;;;;5054562;28;20171;-80
2021/05/06 04:27:29;;;;;;;24.07;12.77;;;;;;;;;;5054268;28;20190;-80
2021/05/06 04:37:56;;;;;;;4.93;2.57;;;;;;;;;;5053960;28;20615;-80
2021/05/06 04:56:18;;;;;;;13.37;2.60;;;;;;;;;;5056751;28;20191;-80
2021/05/06 05:25:06;;;;;;;9.43;2.37;;;;;;;;;;5059611;28;20201;-80
2021/05/06 05:27:33;;;;;;;9.87;2.63;;;;;;;;;;5067254;28;20230;-83
2021/05/06 05:29:59;;;;;;;5.77;2.23;;;;;;;;;;5052587;28;20263;-81
2021/05/06 05:32:25;;;;;;;6.40;2.10;;;;;;;;;;5051639;28;20297;-81
2021/05/06 05:37:19;;;;;;;6.93;1.83;;;;;;;;;;5052917;28;20278;-81
2021/05/06 05:45:52;;;;;;;5.63;2.40;;;7.70;99.90;;;;;;5051625;28;20587;-79
2021/05/06 05:56:05;;;;;;;4.67;2.20;;;;;;;;;;5083495;28;20267;-81
2021/05/06 05:58:31;;;;;;;7.33;2.20;;;;;;;;;;5071581;28;20179;-82
2021/05/06 06:00:57;;;;;;;4.67;2.40;;;;;;;;;;5070445;28;20206;-83
2021/05/06 06:03:23;;;;;;;5.87;2.40;;;;;;;;;;5071398;28;20174;-83
2021/05/06 06:05:52;;;;;;;6.67;2.57;;;;;;;;;;5103430;28;20678;-82
2021/05/06 06:08:21;;;;;;;10.70;3.10;;;;;;;;;;5070854;28;20238;-81
2021/05/06 06:10:47;;;;;;;6.60;1.80;;;;;;;;;;5071652;28;20186;-82
2021/05/06 06:13:13;;;;;;;5.40;2.10;;;7.60;99.90;;;;;;5070099;28;20179;-80
2021/05/06 06:18:26;;;;;;;7.80;3.23;;;7.70;99.90;;;;;;5069342;28;20179;-81
2021/05/06 06:21:03;;;;;;;6.13;1.80;;;;;;;;;;5057064;28;20175;-83
2021/05/06 06:23:29;;;;;;;5.57;2.33;;;;;;;;;;5046685;28;20218;-82
2021/05/06 06:25:55;;;;;;;9.93;2.13;;;;;;;;;;5054876;28;20176;-82
2021/05/06 06:28:22;;;;;;;5.87;2.03;;;;;;;;;;5054701;28;20234;-81
2021/05/06 06:30:48;;;;;;;3.90;2.00;;;;;;;;;;5053666;28;20270;-81
2021/05/06 06:33:15;;;;;;;5.93;2.23;;;;;;;;;;5054592;28;20206;-82
2021/05/06 06:35:41;;;;;;;6.60;2.20;;;;;;;;;;5055369;28;20176;-82
2021/05/06 06:38:06;;;;;;;6.90;1.83;;;8.10;99.90;;;;;;5055889;28;20234;-83
2021/05/06 06:40:32;;;;;;;3.73;1.93;;;;;;;;;;5055580;28;20188;-83
2021/05/06 06:42:58;;;;;;;6.37;2.20;;;;;;;;;;5053952;28;20244;-82
2021/05/06 06:45:24;;;;;;;4.70;1.70;;;;;;;;;;5054051;28;20696;-82
2021/05/06 06:47:52;;;;;;;4.43;1.50;;;8.00;99.90;;;;;;5053303;28;20188;-82
2021/05/06 06:50:18;;;;;;;5.33;2.00;;;;;;;;;;5052915;28;20188;-81
2021/05/06 06:52:44;;;;;;;4.47;1.83;;;;;;;;;;5052546;28;20730;-83
2021/05/06 06:55:10;;;;;;;12.87;3.20;;;8.10;99.90;;;;;;5037062;28;20183;-81
2021/05/06 06:57:36;;;;;;;6.20;1.70;;;;;;;;;;5053557;28;20229;-82
2021/05/06 07:00:04;;;;;;;3.07;1.53;;;8.40;99.90;;;;;;5053552;28;20324;-81
2021/05/06 07:02:30;;;;;;;3.57;1.77;;;;;;;;;;5055206;28;20199;-81
2021/05/06 07:04:56;;;;;;;5.90;2.07;;;;;;;;;;5053626;28;20234;-81
2021/05/06 07:07:22;;;;;;;2.17;1.30;;;;;;;;;;5054908;28;20668;-81
2021/05/06 07:09:47;;;;;;;6.53;2.17;;;8.60;99.90;;;;;;5054606;28;20231;-81
2021/05/06 07:12:13;;;;;;;3.37;1.70;;;9.20;99.90;;;;;;5054586;28;20230;-82
2021/05/06 07:14:39;;;;;;;10.40;1.77;;;;;;;;;;5037212;28;20660;-84
2021/05/06 07:17:05;;;;;;;4.60;1.83;;;;;;;;;;5054620;28;20188;-82
2021/05/06 07:19:31;;;;;;;8.00;1.90;;;;;;;;;;5053811;28;20176;-81
2021/05/06 07:21:57;;;;;;;6.47;2.07;;;;;;;;;;5052725;28;20222;-82
2021/05/06 07:24:23;;;;;;;10.77;2.50;;;;;;;;;;5054664;28;20683;-80
2021/05/06 07:26:49;;;;;;;3.87;1.50;;;;;;;;;;5053056;28;20183;-81
2021/05/06 07:29:18;;;;;;;7.63;1.63;;;8.90;99.90;;;;;;5055359;28;20180;-80
2021/05/06 07:31:44;;;;;;;8.27;2.07;;;;;;;;;;5054835;28;20250;-82
2021/05/06 07:34:10;;;;;;;5.63;2.50;;;;;;;;;;5054972;28;20191;-80
2021/05/06 07:36:36;;;;;;;7.37;1.67;;;;;;;;;;5055174;28;20637;-81
2021/05/06 07:39:03;;;;;;;5.13;1.77;;;9.30;95.90;;;;;;5053099;28;20305;-82
2021/05/06 07:41:29;;;;;;;11.27;1.93;;;;;;;;;;5052993;28;20217;-81
2021/05/06 07:43:55;;;;;;;7.10;1.67;;;;;;;;;;5053137;28;20207;-82
2021/05/06 07:46:21;;;;;;;3.93;1.70;;;9.60;98.50;;;;;;5051892;28;20301;-81
2021/05/06 07:48:47;;;;;;;9.77;2.17;;;9.30;94.20;;;;;;5052953;28;20319;-83
2021/05/06 07:51:13;;;;;;;6.93;1.93;;;;;;;;;;5053055;28;20246;-82
2021/05/06 07:53:47;;;;;;;2.83;1.70;;;;;;;;;;5054386;28;20194;-81
2021/05/06 07:56:13;;;;;;;3.70;1.50;;;;;;;;;;5053869;28;20167;-80
2021/05/06 07:58:39;;;;;;;3.40;1.50;;;9.30;95.80;;;;;;5054919;28;20175;-81
2021/05/06 08:01:05;;;;;;;5.07;2.10;;;;;;;;;;5054579;28;20198;-81
2021/05/06 08:03:31;;;;;;;4.80;1.63;;;;;;;;;;5053573;28;20192;-81
2021/05/06 08:05:57;;;;;;;4.33;2.00;;;;;;;;;;5054268;28;20705;-81
2021/05/06 08:08:25;;;;;;;6.20;2.10;;;9.90;87.50;;;;;;5054585;28;20227;-81
2021/05/06 08:10:52;;;;;;;6.13;1.67;;;;;;;;;;5054411;28;20164;-79
2021/05/06 08:13:18;;;;;;;4.07;1.60;;;;;;;;;;5054199;28;20172;-81
2021/05/06 08:15:44;;;;;;;9.50;1.90;;;;;;;;;;5054530;28;20180;-81
2021/05/06 08:18:10;;;;;;;5.90;1.87;;;;;;;;;;5054100;28;20668;-81
2021/05/06 08:20:36;;;;;;;4.80;2.03;;;;;;;;;;5053381;28;20172;-81
2021/05/06 08:23:03;;;;;;;6.37;1.40;;;;;;;;;;5053081;28;20258;-82
2021/05/06 08:25:30;;;;;;;5.90;1.50;;;;;;;;;;5054449;28;20207;-81
2021/05/06 08:27:56;;;;;;;7.27;1.90;;;;;;;;;;5053645;28;20176;-81
2021/05/06 08:30:22;;;;;;;5.07;1.63;;;;;;;;;;5053703;28;20329;-82
2021/05/06 08:32:48;;;;;;;5.00;1.53;;;;;;;;;;5052119;28;20207;-82
2021/05/06 08:35:14;;;;;;;1.73;1.13;;;;;;;;;;5051989;28;20251;-82
2021/05/06 08:37:40;;;;;;;2.00;1.50;;;;;;;;;;5052265;28;20183;-81
2021/05/06 08:40:07;;;;;;;3.73;1.67;;;10.70;73.80;;;;;;5050551;28;20176;-82
2021/05/06 08:42:34;;;;;;;6.93;2.10;;;10.60;73.40;;;;;;5050934;28;20644;-83
2021/05/06 08:45:01;;;;;;;4.00;2.47;;;10.90;87.30;;;;;;5050951;28;20184;-81
2021/05/06 08:47:28;;;;;;;2.30;2.03;;;;;;;;;;5052160;28;20179;-81
2021/05/06 08:49:54;;;;;;;6.40;1.80;;;;;;;;;;5053646;28;20183;-84
2021/05/06 08:52:20;;;;;;;3.93;1.40;;;10.80;87.50;;;;;;5053759;28;20208;-81
2021/05/06 08:54:50;;;;;;;4.53;1.50;;;10.90;86.80;;;;;;5052583;28;20645;-81
2021/05/06 08:57:19;;;;;;;6.70;1.83;;;11.00;87.20;;;;;;5035758;28;20562;-80
2021/05/06 08:59:45;;;;;;;2.00;1.30;;;;;;;;;;5053281;28;20172;-81
2021/05/06 09:02:11;;;;;;;4.93;2.27;;;;;;;;;;5052027;28;20180;-81
2021/05/06 09:04:38;;;;;;;4.27;1.73;;;;;;;;;;5051534;28;20214;-81
2021/05/06 09:07:05;;;;;;;9.30;1.93;;;11.50;84.30;;;;;;5051358;28;20179;-82
2021/05/06 09:09:33;;;;;;;4.60;1.80;;;11.60;80.50;;;;;;5051657;28;20234;-82
2021/05/06 09:12:01;;;;;;;7.07;1.80;;;11.70;85.10;;;;;;5051241;28;20212;-82
2021/05/06 09:14:49;;;;;;;3.63;1.75;;;11.70;68.70;;;;;;5050173;28;20180;-82
2021/05/06 09:17:25;;;;;;;7.77;2.03;;;11.80;71.60;;;;;;5050981;28;20561;-82
2021/05/06 09:20:13;;;;;;;6.83;1.60;;;11.60;78.80;;;;;;5053148;28;20175;-81
2021/05/06 09:22:45;;;;;;;5.57;1.60;;;11.50;77.90;;;;;;5053613;28;20192;-81
2021/05/06 09:25:34;;;;;;;5.27;1.43;;;11.80;66.10;;;;;;5052610;28;20260;-81
2021/05/06 09:28:06;;;;;;;4.50;1.23;;;12.20;75.20;;;;;;5053127;28;20621;-81
2021/05/06 09:30:34;;;;;;;2.87;1.40;;;11.70;75.20;;;;;;5053312;28;20178;-81
2021/05/06 09:33:08;;;;;;;3.90;1.50;;;12.10;78.50;;;;;;5053130;28;20204;-81
2021/05/06 09:35:54;;;;;;;9.90;1.60;;;12.10;78.90;;;;;;5053316;28;20163;-81
2021/05/06 09:38:32;;;;;;;7.53;1.58;;;11.70;76.60;;;;;;5052673;28;20249;-81
2021/05/06 09:41:01;;;;;;;6.40;1.70;;;12.00;76.80;;;;;;5053262;28;20176;-80
2021/05/06 09:43:31;;;;;;;12.70;1.95;;;12.10;78.10;;;;;;5053266;28;20230;-81
2021/05/06 09:45:59;;;;;;;3.67;1.50;;;11.70;76.80;;;;;;5053234;28;20176;-81
2021/05/06 09:48:25;;;;;;;3.83;1.77;;;11.60;77.40;;;;;;5053202;28;20182;-81
2021/05/06 09:51:00;;;;;;;11.23;1.67;;;11.30;72.60;;;;;;5035291;28;20540;-81
2021/05/06 09:53:30;;;;;;;3.97;2.03;;;11.50;74.60;;;;;;5053041;28;20632;-81
2021/05/06 09:56:01;;;;;;;2.60;1.50;;;11.40;76.00;;;;;;5052919;28;20183;-81
2021/05/06 09:58:31;;;;;;;4.73;1.83;;;11.70;62.80;;;;;;5053194;28;20210;-81
2021/05/06 10:00:57;;;;;;;3.70;1.70;;;12.00;74.30;;;;;;5051827;28;20175;-81
2021/05/06 10:03:33;;;;;;;3.27;1.30;;;12.00;74.30;;;;;;5051650;28;20539;-81
2021/05/06 10:06:11;;;;;;;4.68;1.75;;;12.20;61.50;;;;;;5052031;28;20156;-81
2021/05/06 10:08:38;;;;;;;8.73;2.13;;;;;;;;;;5050467;28;20226;-83
2021/05/06 10:11:22;;;;;;;6.95;2.10;;;12.40;62.40;;;;;;5050358;28;20544;-82
2021/05/06 10:13:49;;;;;;;4.45;1.60;;;12.60;74.10;;;;;;5052494;28;20179;-83
2021/05/06 10:16:16;;;;;;;4.50;1.35;;;12.90;71.10;;;;;;5051976;28;20305;-82
2021/05/06 10:18:44;;;;;;;11.32;1.95;;;13.10;71.70;;;;;;5052237;28;20180;-83
2021/05/06 10:21:16;;;;;;;4.35;1.55;;;12.80;58.70;;;;;;5050359;28;20184;-83
2021/05/06 10:23:46;;;;;;;4.78;1.73;;;12.80;58.20;;;;;;5050265;28;20329;-85
2021/05/06 10:26:13;;;;;;;6.57;2.17;;;13.20;58.80;;;;;;5051678;28;20171;-82
2021/05/06 10:28:39;;;;;;;6.95;1.90;;;13.20;71.60;;;;;;5051592;28;20172;-82
2021/05/06 10:31:08;;;;;;;5.07;1.60;;;13.30;57.80;;;;;;5051015;28;20172;-84
2021/05/06 10:33:37;;;;;;;1.98;1.25;;;13.40;61.60;;;;;;5051198;28;20591;-81
2021/05/06 10:36:07;;;;;;;7.13;1.40;;;12.90;68.00;;;;;;5051330;28;20172;-80
2021/05/06 10:38:35;;;;;;;6.55;1.52;;;13.50;68.20;;;;;;5087311;28;20179;-80
2021/05/06 10:41:22;;;;;;;6.22;1.90;;;13.40;70.20;;;;;;5055983;28;20167;-81
2021/05/06 10:43:59;;;;;;;15.23;1.45;;;13.80;69.10;;;;;;5056101;28;20176;-80
2021/05/06 10:47:00;;;;;;;5.78;1.80;;;13.00;55.30;;;;;;5041803;28;20164;-81
2021/05/06 10:49:50;;;;;;;4.05;1.42;;;13.10;69.20;;;;;;5054073;28;20183;-81
2021/05/06 10:52:17;;;;;;;3.90;1.30;;;13.00;69.40;;;;;;5043114;28;20215;-80
2021/05/06 10:54:45;;;;;;;4.40;1.75;;;13.10;57.90;;;;;;5054680;28;20521;-81
2021/05/06 10:57:11;;;;;;;3.80;1.52;;;13.60;63.90;;;;;;5055391;28;20250;-80
2021/05/06 10:59:41;;;;;;;7.03;2.00;;;13.10;68.40;;;;;;5054149;28;20321;-80
2021/05/06 11:02:08;;;;;;;2.75;1.50;;;12.80;64.10;;;;;;5083626;28;20189;-80
2021/05/06 11:04:41;;;;;;;3.60;1.90;;;12.20;68.30;;;;;;5054511;28;20180;-80
2021/05/06 11:07:23;;;;;;;4.10;1.98;;;12.00;70.30;;;;;;5055683;28;20176;-78
2021/05/06 11:09:53;;;;;;;6.47;1.92;;;12.30;70.50;;;;;;5054489;28;20231;-79
2021/05/06 11:12:27;;;;;;;6.00;1.60;;;12.40;68.00;;;;;;5057172;28;20676;-81
2021/05/06 11:15:02;;;;;;;2.78;1.70;;;13.30;68.60;;;;;;5055090;28;20172;-80
2021/05/06 11:17:42;;;;;;;4.78;1.70;;;12.70;68.30;;;;;;5054828;28;20172;-80
2021/05/06 11:20:10;;;;;;;3.50;1.60;;;12.50;69.10;;;;;;5059668;28;20176;-78
2021/05/06 11:22:42;;;;;;;6.07;1.58;;;12.50;70.50;;;;;;5059238;28;20186;-80
2021/05/06 11:25:26;;;;;;;2.00;1.52;;;12.80;67.10;;;;;;5053656;28;20180;-80
2021/05/06 11:28:11;;;;;;;3.72;1.88;;;13.30;68.00;;;;;;5051842;28;20179;-81
2021/05/06 11:30:44;;;;;;;5.47;1.48;;;13.40;66.90;;;;;;5053188;28;20633;-80
2021/05/06 11:33:22;;;;;;;3.17;1.38;;;12.40;66.30;;;;;;5050811;28;20633;-81
2021/05/06 11:36:10;;;;;;;2.72;1.50;;;12.40;66.70;;;;;;5054481;28;20179;-81
2021/05/06 11:38:39;;;;;;;4.95;1.65;;;;;;;;;;5051400;28;20176;-80
2021/05/06 11:41:11;;;;;;;4.63;1.00;;;13.70;64.60;;;;;;5054650;28;20222;-81
2021/05/06 11:43:48;;;;;;;7.50;1.65;;;13.30;63.30;;;;;;5054457;28;20172;-81
2021/05/06 11:46:18;;;;;;;6.00;1.33;;;13.00;62.60;;;;;;5052310;28;20225;-82
2021/05/06 11:48:52;;;;;;;2.67;1.58;;;13.20;66.10;;;;;;5053591;28;20168;-80
2021/05/06 11:51:34;;;;;;;8.65;3.03;;;13.40;67.10;;;;;;5052481;28;20187;-81
2021/05/06 11:54:29;;;;;;;4.43;1.30;;;13.30;65.80;;;;;;5051992;28;20172;-81
2021/05/06 11:57:00;;;;;;;4.38;1.63;;;13.10;66.50;;;;;;5053116;28;20184;-81
2021/05/06 11:59:31;;;;;;;5.78;1.60;;;13.20;66.10;;;;;;5053930;28;20546;-83
2021/05/06 12:02:07;;;;;;;5.80;1.55;;;13.80;66.20;;;;;;5061692;28;20183;-83
2021/05/06 12:04:35;;;;;;;4.78;1.92;;;13.60;62.90;;;;;;5052952;28;20179;-82
2021/05/06 12:07:19;;;;;;;2.15;1.13;;;14.10;62.90;;;;;;5052944;28;20632;-80
2021/05/06 12:09:45;;;;;;;4.43;1.60;;;13.60;63.00;;;;;;5053085;28;20723;-82
2021/05/06 12:12:22;;;;;;;6.60;1.27;;;13.60;57.30;;;;;;5054044;28;20210;-81
2021/05/06 12:14:48;;;;;;;3.83;1.30;;;13.20;62.60;;;;;;5054215;28;20231;-82
2021/05/06 12:17:19;;;;;;;4.53;1.30;;;13.30;63.40;;;;;;5052654;28;20583;-81
2021/05/06 12:19:46;;;;;;;6.00;1.60;;;13.70;64.40;;;;;;5053946;28;20194;-81
2021/05/06 12:22:13;;;;;;;4.85;1.77;;;14.10;65.80;;;;;;5077812;28;20645;-82
2021/05/06 12:24:41;;;;;;;2.58;1.33;;;14.70;61.10;;;;;;5052436;28;20659;-81
2021/05/06 12:27:27;;;;;;;3.83;1.40;;;14.60;51.90;;;;;;5053678;28;20191;-84
2021/05/06 12:29:56;;;;;;;4.63;1.67;;;14.30;55.00;;;;;;5050670;28;20179;-82
2021/05/06 12:32:23;;;;;;;3.95;1.25;;;14.10;61.00;;;;;;5052350;28;20688;-81
2021/05/06 12:34:50;;;;;;;9.82;1.52;;;14.20;62.00;;;;;;5051570;28;20195;-82
2021/05/06 12:37:16;;;;;;;3.03;1.63;;;13.60;62.00;;;;;;5053233;28;20184;-81
2021/05/06 12:39:42;;;;;;;3.72;1.55;;;13.60;62.60;;;;;;5053202;28;20183;-81
2021/05/06 12:42:08;;;;;;;7.82;1.58;;;14.10;62.50;;;;;;5052899;28;20192;-81
2021/05/06 12:44:42;;;;;;;3.40;1.48;;;13.20;62.40;;;;;;5051230;28;20266;-81
2021/05/06 12:47:24;;;;;;;4.05;1.63;;;13.20;64.00;;;;;;5050640;28;20237;-81
2021/05/06 12:50:22;;;;;;;5.85;1.58;;;13.30;66.20;;;;;;5050728;28;20186;-81
2021/05/06 12:52:49;;;;;;;15.70;2.47;;;12.90;68.00;;;;;;5051034;28;20200;-82
2021/05/06 12:55:22;;;;;;;4.40;1.52;;;12.50;69.50;;;;;;5051528;28;20629;-81
2021/05/06 12:58:12;;;;;;;3.72;1.63;;;11.90;62.20;;;;;;5052986;28;20613;-83
2021/05/06 13:00:38;;;;;;;4.07;1.65;;;12.30;65.60;;;;;;5051138;28;20612;-82
2021/05/06 13:03:09;;;;;;;4.93;1.38;;;12.90;64.60;;;;;;5052858;28;20212;-82
2021/05/06 13:05:48;;;;;;;5.13;1.42;;;13.30;62.10;;;;;;5053042;28;20172;-81
2021/05/06 13:08:14;;;;;;;2.83;1.33;;;;;;;;;;5052100;28;20219;-80
2021/05/06 13:10:42;;;;;;;9.32;1.70;;;13.90;60.00;;;;;;5053094;28;20180;-80
2021/05/06 13:13:10;;;;;;;3.55;1.63;;;14.10;61.30;;;;;;5053399;28;20204;-82
2021/05/06 13:15:47;;;;;;;6.45;1.70;;;14.30;52.80;;;;;;5051760;28;20577;-82
2021/05/06 13:18:13;;;;;;;3.47;1.60;;;15.00;63.70;;;;;;5051461;28;20176;-82
2021/05/06 13:20:40;;;;;;;5.00;1.52;;;15.40;53.60;;;;;;5051402;28;20180;-82
2021/05/06 13:23:13;;;;;;;3.65;2.10;;;15.00;63.00;;;;;;5051507;28;20184;-84
2021/05/06 13:26:07;;;;;;;2.15;1.65;;;14.70;54.40;;;;;;5051431;28;20642;-82
2021/05/06 13:28:33;;;;;;;11.10;3.85;;;13.90;64.60;;;;;;5048852;28;20656;-82
2021/05/06 13:31:19;;;;;;;3.38;1.65;;;13.20;63.60;;;;;;5051622;28;20168;-80
2021/05/06 13:33:46;;;;;;;3.47;1.92;;;13.40;65.90;;;;;;5051783;28;20192;-81
2021/05/06 13:36:14;;;;;;;3.95;1.83;;;12.70;67.20;;;;;;5053289;28;20186;-80
2021/05/06 13:38:56;;;;;;;2.75;1.63;;;13.20;64.80;;;;;;5053214;28;20206;-81
2021/05/06 13:41:31;;;;;;;3.30;1.83;;;13.30;68.00;;;;;;5053438;28;20662;-80
2021/05/06 13:43:59;;;;;;;2.92;1.40;;;12.70;67.30;;;;;;5052842;28;20171;-81
2021/05/06 13:46:26;;;;;;;5.32;1.90;;;12.90;56.50;;;;;;5053045;28;20258;-86
2021/05/06 13:48:53;;;;;;;6.10;1.67;;;13.10;67.90;;;;;;5052997;28;20267;-80
2021/05/06 13:51:20;;;;;;;3.67;2.00;;;13.10;66.40;;;;;;5053053;28;20207;-81
2021/05/06 13:53:47;;;;;;;2.55;1.60;;;13.40;60.80;;;;;;5052640;28;20243;-80
2021/05/06 13:56:13;;;;;;;3.85;1.27;;;13.80;59.60;;;;;;5052885;28;20214;-81
2021/05/06 13:58:39;;;;;;;4.50;1.58;;;;;;;;;;5051664;28;20596;-81
2021/05/06 14:01:07;;;;;;;4.07;1.45;;;13.60;53.80;;;;;;5051881;28;20202;-81
2021/05/06 14:03:34;;;;;;;2.70;1.90;;;13.30;63.30;;;;;;5052782;28;20176;-81
2021/05/06 14:06:00;;;;;;;2.00;1.67;;;13.30;63.70;;;;;;5052998;28;20286;-82
2021/05/06 14:08:28;;;;;;;5.43;1.40;;;13.00;63.60;;;;;;5052738;28;20239;-80
2021/05/06 14:10:55;;;;;;;5.97;1.63;;;12.80;64.40;;;;;;5052476;28;20164;-80
2021/05/06 14:13:22;;;;;;;2.95;1.50;;;12.80;55.40;;;;;;5055842;28;20216;-79
2021/05/06 14:15:48;;;;;;;4.35;2.10;;;12.70;55.80;;;;;;5056247;28;20532;-82
2021/05/06 14:18:14;;;;;;;3.35;1.67;;;12.30;65.80;;;;;;5071039;28;20168;-78
2021/05/06 14:20:40;;;;;;;6.60;1.77;;;12.60;62.30;;;;;;5067795;28;20652;-81
2021/05/06 14:23:07;;;;;;;7.43;2.13;;;12.60;56.30;;;;;;5055710;28;20188;-81
2021/05/06 14:25:33;;;;;;;6.15;2.03;;;12.50;68.00;;;;;;5055236;28;20183;-82
2021/05/06 14:27:59;;;;;;;7.78;1.90;;;;;;;;;;5053985;28;20648;-82
2021/05/06 14:30:25;;;;;;;3.25;1.75;;;13.30;68.00;;;;;;5055789;28;20237;-83
2021/05/06 14:32:51;;;;;;;7.10;1.92;;;;;;;;;;5053268;28;20739;-82
2021/05/06 14:35:17;;;;;;;4.78;1.83;;;13.50;67.70;;;;;;5054796;28;20188;-82
2021/05/06 14:37:43;;;;;;;4.63;1.73;;;;;;;;;;5054772;28;20226;-81
2021/05/06 14:40:09;;;;;;;4.75;1.90;;;12.90;68.80;;;;;;5055045;28;20179;-81
2021/05/06 14:42:35;;;;;;;5.20;1.85;;;12.60;68.00;;;;;;5037274;28;20649;-81
2021/05/06 14:45:01;;;;;;;4.53;2.15;;;12.60;59.20;;;;;;5055759;28;20237;-81
2021/05/06 14:47:27;;;;;;;2.42;1.50;;;12.40;58.40;;;;;;5055661;28;20188;-82
2021/05/06 14:49:54;;;;;;;5.53;1.40;;;;;;;;;;5054196;28;20669;-81
2021/05/06 14:52:20;;;;;;;2.90;1.30;;;11.70;71.00;;;;;;5054814;28;20199;-82
2021/05/06 14:54:46;;;;;;;3.77;1.43;;;10.80;67.30;;;;;;5054455;28;20184;-83
2021/05/06 14:57:12;;;;;;;2.17;1.67;;;;;;;;;;5053624;28;20633;-83
2021/05/06 14:59:38;;;;;;;2.07;1.53;;;10.80;84.50;;;;;;5054574;28;20191;-82
2021/05/06 15:02:04;;;;;;;7.33;2.40;;;;;;;;;;5057064;28;20196;-84
2021/05/06 15:04:30;;;;;;;2.40;1.60;;;;;;;;;;5055748;28;20180;-83
2021/05/06 15:06:56;;;;;;;5.80;2.20;;;10.60;91.20;;;;;;5054572;28;20218;-82
2021/05/06 15:09:24;;;;;;;4.60;2.03;;;;;;;;;;5055143;28;20259;-82
2021/05/06 15:11:50;;;;;;;3.97;1.90;;;11.60;90.90;;;;;;5053437;28;20208;-83
2021/05/06 15:14:16;;;;;;;5.20;2.53;;;12.50;90.70;;;;;;5055037;28;20172;-81
2021/05/06 15:16:41;;;;;;;8.38;1.95;;;12.70;87.60;;;;;;5053991;28;20282;-83
2021/05/06 15:19:07;;;;;;;3.97;1.50;;;13.40;83.50;;;;;;5053458;28;20191;-83
2021/05/06 15:21:33;;;;;;;1.75;1.40;;;;;;;;;;5053201;28;20196;-84
2021/05/06 15:23:59;;;;;;;1.50;1.10;;;13.50;77.20;;;;;;5051508;28;20195;-86
2021/05/06 15:26:24;;;;;;;1.83;1.40;;;13.70;78.00;;;;;;5053119;28;20609;-83
2021/05/06 15:28:51;;;;;;;2.95;1.60;;;13.00;79.40;;;;;;5052849;28;20175;-82
2021/05/06 15:31:18;;;;;;;1.80;1.20;;;13.20;81.30;;;;;;5054056;28;20172;-82
2021/05/06 15:33:44;;;;;;;2.10;1.15;;;13.10;79.30;;;;;;5052793;28;20184;-82
2021/05/06 15:36:17;;;;;;;2.63;1.20;;;;;;;;;;5028188;28;20184;-83
2021/05/06 15:38:43;;;;;;;5.28;1.10;;;13.00;77.00;;;;;;5036976;28;20702;-83
2021/05/06 15:41:09;;;;;;;2.70;1.35;;;;;;;;;;5052563;28;20199;-84
2021/05/06 15:43:35;;;;;;;1.33;1.23;;;;;;;;;;5052705;28;20176;-83
2021/05/06 15:46:01;;;;;;;2.22;1.35;;;13.00;79.10;;;;;;5051107;28;20227;-83
2021/05/06 15:48:27;;;;;;;4.43;1.50;;;;;;;;;;5052682;28;20270;-83
2021/05/06 15:50:52;;;;;;;3.17;1.40;;;13.70;77.60;;;;;;5052626;28;20192;-83
2021/05/06 15:53:19;;;;;;;7.80;2.33;;;13.70;77.40;;;;;;5054011;28;20661;-82
2021/05/06 15:55:44;;;;;;;2.97;1.58;;;13.20;76.60;;;;;;5053111;28;20187;-84
2021/05/06 15:58:11;;;;;;;2.63;1.70;;;;;;;;;;5053669;28;20734;-82
2021/05/06 16:00:37;;;;;;;3.03;1.70;;;;;;;;;;5052410;28;20273;-85
2021/05/06 16:03:08;;;;;;;2.80;1.67;;;13.30;75.60;;;;;;5054112;28;20176;-84
2021/05/06 16:05:35;;;;;;;4.13;2.10;;;12.70;68.90;;;;;;5053483;28;20168;-84
2021/05/06 16:08:01;;;;;;;1.92;1.73;;;13.10;79.80;;;;;;5051153;28;20203;-85
2021/05/06 16:10:27;;;;;;;5.82;2.05;;;12.70;81.40;;;;;;5053163;28;20207;-84
2021/05/06 16:12:53;;;;;;;3.78;1.70;;;12.20;81.60;;;;;;5034877;28;20272;-83
2021/05/06 16:15:19;;;;;;;6.95;1.70;;;11.80;81.30;;;;;;5053591;28;20183;-82
2021/05/06 16:17:45;;;;;;;14.83;4.43;;;12.00;83.60;;;;;;5053287;28;20183;-84
2021/05/06 16:20:20;;;;;;;2.38;1.80;;;11.40;81.70;;;;;;5053127;28;20192;-82
2021/05/06 16:22:47;;;;;;;1.97;1.30;;;11.20;83.00;;;;;;5053181;28;20168;-81
2021/05/06 16:25:14;;;;;;;2.03;1.20;;;11.10;71.20;;;;;;5052327;28;20264;-83
2021/05/06 16:27:40;;;;;;;1.33;1.23;;;11.30;71.00;;;;;;5052100;28;20199;-81
2021/05/06 16:30:08;;;;;;;2.67;1.58;;;11.30;83.20;;;;;;5051203;28;20176;-81
2021/05/06 16:32:34;;;;;;;2.07;1.27;;;11.60;78.00;;;;;;5051705;28;20203;-81
2021/05/06 16:35:02;;;;;;;3.50;2.03;;;11.50;70.80;;;;;;5051035;28;20221;-81
2021/05/06 16:37:36;;;;;;;4.35;1.20;;;11.10;82.70;;;;;;5051870;28;20183;-81
2021/05/06 16:43:12;;;;;;;2.47;1.83;;;;;;;;;;5041022;28;20195;-81
2021/05/06 16:45:42;;;;;;;2.10;1.47;;;11.10;83.40;;;;;;5050256;28;20160;-82
2021/05/06 16:48:13;;;;;;;2.23;1.20;;;11.10;83.60;;;;;;5052259;28;20583;-83
2021/05/06 16:50:40;;;;;;;3.20;1.40;;;10.60;84.80;;;;;;5050254;28;20183;-81
2021/05/06 16:53:06;;;;;;;5.60;1.63;;;10.90;85.40;;;;;;5052233;28;20669;-82
2021/05/06 16:55:34;;;;;;;3.73;2.50;;;;;;;;;;5051009;28;20191;-82
2021/05/06 16:58:00;;;;;;;4.93;2.90;;;;;;;;;;5052181;28;20621;-83
2021/05/06 17:00:26;;;;;;;6.73;3.67;;;;;;;;;;5051214;28;20184;-83
2021/05/06 17:02:53;;;;;;;6.73;2.90;;;11.00;83.10;;;;;;5051120;28;20195;-83
2021/05/06 17:05:20;;;;;;;3.95;2.20;;;10.50;92.60;;;;;;5052239;28;20187;-82
2021/05/06 17:07:46;;;;;;;3.17;2.03;;;10.70;92.30;;;;;;5052335;28;20199;-83
2021/05/06 17:10:17;;;;;;;3.27;1.83;;;10.80;83.40;;;;;;5052250;28;20232;-82
2021/05/06 17:12:43;;;;;;;3.03;1.70;;;;;;;;;;5052631;28;20207;-81